ADDS METAR Data INFO
IDs: Format: Raw Decoded Include TAF

Data at: 1510 UTC 29 May 2017

METAR for:KAUS (Austin/Bergstrom Int, TX, US)
Text:KAUS 291453Z COR 10005KT 10SM FEW012 OVC025 23/21 A3009 RMK AO2 SLP181 T02280206 51037 $
Temperature: 22.8°C ( 73°F)
Dewpoint: 20.6°C ( 69°F) [RH = 87%]
Pressure (altimeter):30.09 inches Hg (1019.0 mb) [Sea level pressure: 1018.1 mb]
Winds:from the E (100 degrees) at 6 MPH (5 knots; 2.6 m/s)
Visibility:10 or more sm (16+ km)
Ceiling:2500 feet AGL
Clouds: few clouds at 1200 feet AGL, overcast cloud deck at 2500 feet AGL
QC Flag:SOME DATA ABOVE MAY BE INACCURATE!!!"$" is an indication the sensor requires maintenance.


Page loaded:  15:10 UTC  |   08:10 AM Pacific  |   09:10 AM Mountain  |   10:10 AM Central  |   11:10 AM Eastern

 

ADVISORIES

FORECASTS

FORECASTS

OBSERVATIONS

USER TOOLS

ABOUT US